createdAt,value
2018-04-26T00:00:15.281Z,59.00
2018-04-26T00:02:43.910Z,59.60
2018-04-26T00:05:11.473Z,59.00
2018-04-26T00:07:39.018Z,59.20
2018-04-26T00:10:06.590Z,59.20
2018-04-26T00:12:34.122Z,59.30
2018-04-26T00:15:02.464Z,59.40
2018-04-26T00:17:30.004Z,59.40
2018-04-26T00:19:57.574Z,59.40
2018-04-26T00:22:25.143Z,59.50
2018-04-26T00:24:52.675Z,59.60
2018-04-26T00:27:20.246Z,59.70
2018-04-26T00:29:47.780Z,59.70
2018-04-26T00:32:15.315Z,59.70
2018-04-26T00:34:43.658Z,59.80
2018-04-26T00:37:11.211Z,59.80
2018-04-26T00:39:38.749Z,59.80
2018-04-26T00:42:06.332Z,59.90
2018-04-26T00:44:33.912Z,59.80
2018-04-26T00:47:01.441Z,60.00
2018-04-26T00:49:28.998Z,60.00
2018-04-26T00:52:01.457Z,59.90
2018-04-26T00:54:28.990Z,59.90
2018-04-26T00:56:57.295Z,59.70
2018-04-26T00:59:24.867Z,59.70
2018-04-26T01:01:52.403Z,59.70
2018-04-26T01:04:19.974Z,59.70
2018-04-26T01:06:47.506Z,59.70
2018-04-26T01:09:15.838Z,59.70
2018-04-26T01:11:43.366Z,59.60
2018-04-26T01:14:10.938Z,59.60
2018-04-26T01:16:38.502Z,59.60
2018-04-26T01:19:06.055Z,59.50
2018-04-26T01:21:33.628Z,59.50
2018-04-26T01:24:01.157Z,59.50
2018-04-26T01:26:28.727Z,59.50
2018-04-26T01:28:56.305Z,60.20
2018-04-26T01:31:23.862Z,59.60
2018-04-26T01:33:51.413Z,59.60
2018-04-26T01:36:31.046Z,59.60
2018-04-26T01:38:58.614Z,59.50
2018-04-26T01:41:26.146Z,59.50
2018-04-26T01:43:54.474Z,59.50
2018-04-26T01:46:22.019Z,59.50
2018-04-26T01:48:51.125Z,59.50
2018-04-26T01:51:18.664Z,59.40
2018-04-26T01:53:46.235Z,59.50
2018-04-26T01:56:13.810Z,59.60
2018-04-26T01:58:41.345Z,59.70
2018-04-26T02:01:08.923Z,59.70
2018-04-26T02:03:36.447Z,59.80
2018-04-26T02:06:04.741Z,59.70
2018-04-26T02:08:32.314Z,59.70
2018-04-26T02:10:59.889Z,59.80
2018-04-26T02:13:27.425Z,59.80
2018-04-26T02:15:54.959Z,59.80
2018-04-26T02:18:23.290Z,59.70
2018-04-26T02:20:50.840Z,59.60
2018-04-26T02:23:18.407Z,59.70
2018-04-26T02:25:45.945Z,59.70
2018-04-26T02:28:13.519Z,59.80
2018-04-26T02:30:41.060Z,59.70
2018-04-26T02:33:08.634Z,59.70
2018-04-26T02:35:36.167Z,59.70
2018-04-26T02:38:04.502Z,59.70
2018-04-26T02:40:32.037Z,59.70
2018-04-26T02:42:59.572Z,59.60
2018-04-26T02:45:27.152Z,59.60
2018-04-26T02:47:54.676Z,59.50
2018-04-26T02:50:23.014Z,59.50
2018-04-26T02:52:50.559Z,59.50
2018-04-26T02:55:18.129Z,59.40
2018-04-26T02:57:45.697Z,59.40
2018-04-26T03:00:13.250Z,59.40
2018-04-26T03:02:40.815Z,59.80
2018-04-26T03:05:08.356Z,59.30
2018-04-26T03:07:35.933Z,59.20
2018-04-26T03:10:04.268Z,59.00
2018-04-26T03:12:31.816Z,59.10
2018-04-26T03:15:00.171Z,59.60
2018-04-26T03:17:27.707Z,59.00
2018-04-26T03:19:55.239Z,58.90
2018-04-26T03:22:22.794Z,58.90
2018-04-26T03:24:50.371Z,58.90
2018-04-26T03:27:17.915Z,58.80
2018-04-26T03:29:46.260Z,58.80
2018-04-26T03:32:14.564Z,58.70
2018-04-26T03:34:42.130Z,58.70
2018-04-26T03:37:09.683Z,58.70
2018-04-26T03:39:39.172Z,58.60
2018-04-26T03:42:07.466Z,58.50
2018-04-26T03:44:34.995Z,58.40
2018-04-26T03:47:03.345Z,58.40
2018-04-26T03:49:30.918Z,58.40
2018-04-26T03:51:59.215Z,58.00
2018-04-26T03:54:27.551Z,57.90
2018-04-26T03:56:55.128Z,58.00
2018-04-26T03:59:22.663Z,57.80
2018-04-26T04:02:02.199Z,57.60
2018-04-26T04:04:41.718Z,57.50
2018-04-26T04:07:09.295Z,57.30
2018-04-26T04:09:36.862Z,57.10
2018-04-26T04:12:04.400Z,56.80
2018-04-26T04:14:31.970Z,56.60
2018-04-26T04:16:59.510Z,56.30
2018-04-26T04:19:27.857Z,55.80
2018-04-26T04:21:55.444Z,55.80
2018-04-26T04:24:23.746Z,55.50
2018-04-26T04:26:51.282Z,55.40
2018-04-26T04:29:19.615Z,55.20
2018-04-26T04:31:47.149Z,55.20
2018-04-26T04:34:14.715Z,55.10
2018-04-26T04:36:42.241Z,55.20
2018-04-26T04:39:10.577Z,55.10
2018-04-26T04:41:38.120Z,55.00
2018-04-26T04:44:05.694Z,55.00
2018-04-26T04:46:33.232Z,54.70
2018-04-26T04:49:00.799Z,54.60
2018-04-26T04:51:28.326Z,54.50
2018-04-26T04:53:55.904Z,54.20
2018-04-26T04:56:23.433Z,54.00
2018-04-26T04:58:51.773Z,53.80
2018-04-26T05:01:19.345Z,53.80
2018-04-26T05:03:47.646Z,54.10
2018-04-26T05:06:15.977Z,53.80
2018-04-26T05:08:43.507Z,53.80
2018-04-26T05:11:11.084Z,53.70
2018-04-26T05:13:38.628Z,53.80
2018-04-26T05:16:06.218Z,53.80
2018-04-26T05:18:33.750Z,53.60
2018-04-26T05:21:01.284Z,53.60
2018-04-26T05:23:29.617Z,53.70
2018-04-26T05:25:57.146Z,53.70
2018-04-26T05:28:24.714Z,53.80
2018-04-26T05:30:52.260Z,53.70
2018-04-26T05:33:19.832Z,53.70
2018-04-26T05:35:47.368Z,53.90
2018-04-26T05:38:15.703Z,54.30
2018-04-26T05:40:43.240Z,54.30
2018-04-26T05:43:10.916Z,54.50
2018-04-26T05:45:38.501Z,54.50
2018-04-26T05:48:09.375Z,54.90
2018-04-26T05:50:37.666Z,55.00
2018-04-26T05:53:05.199Z,55.00
2018-04-26T05:55:33.534Z,55.50
2018-04-26T05:58:01.069Z,55.30
2018-04-26T06:00:28.642Z,55.40
2018-04-26T06:02:56.198Z,55.40
2018-04-26T06:05:23.768Z,55.50
2018-04-26T06:07:51.296Z,55.40
2018-04-26T06:10:18.874Z,55.50
2018-04-26T06:12:46.430Z,55.60
2018-04-26T06:15:13.967Z,55.50
2018-04-26T06:17:42.307Z,55.70
2018-04-26T06:20:09.891Z,55.60
2018-04-26T06:22:38.257Z,55.90
2018-04-26T06:25:05.926Z,55.80
2018-04-26T06:27:33.411Z,55.80
2018-04-26T06:30:01.720Z,56.00
2018-04-26T06:32:33.333Z,56.00
2018-04-26T06:35:17.247Z,56.00
2018-04-26T06:40:50.605Z,56.10
2018-04-26T06:43:20.563Z,56.00
2018-04-26T06:45:52.461Z,56.00
2018-04-26T06:48:25.109Z,56.00
2018-04-26T06:50:57.385Z,56.10
2018-04-26T06:53:26.787Z,56.20
2018-04-26T06:55:54.465Z,56.10
2018-04-26T06:58:23.592Z,56.20
2018-04-26T07:18:17.410Z,56.40
2018-04-26T07:38:05.291Z,56.40
2018-04-26T07:40:33.873Z,56.50
2018-04-26T07:43:01.624Z,56.30
2018-04-26T07:45:30.233Z,56.40
2018-04-26T07:47:59.085Z,56.40
2018-04-26T07:50:26.943Z,56.40
2018-04-26T07:52:54.638Z,56.30
2018-04-26T07:55:22.437Z,56.30
2018-04-26T07:57:50.132Z,56.30
2018-04-26T08:00:17.950Z,56.30
2018-04-26T08:02:46.701Z,56.30
2018-04-26T08:05:15.345Z,56.40
2018-04-26T08:07:43.014Z,56.40
2018-04-26T08:10:10.773Z,56.40
2018-04-26T08:12:38.515Z,56.40
2018-04-26T08:15:06.323Z,56.30
2018-04-26T08:17:34.024Z,56.20
2018-04-26T08:20:02.662Z,56.10
2018-04-26T08:22:31.239Z,56.80
2018-04-26T08:24:59.232Z,56.00
2018-04-26T08:27:26.905Z,56.10
2018-04-26T08:29:54.645Z,56.10
2018-04-26T08:32:22.485Z,56.00
2018-04-26T08:37:25.753Z,56.00
2018-04-26T08:39:53.322Z,55.80
2018-04-26T08:42:20.902Z,55.80
2018-04-26T08:44:48.432Z,55.80
2018-04-26T08:47:15.967Z,55.80
2018-04-26T08:49:44.290Z,55.90
2018-04-26T08:52:11.870Z,55.90
2018-04-26T08:54:39.397Z,55.80
2018-04-26T08:57:06.940Z,55.70
2018-04-26T08:59:35.273Z,55.70
2018-04-26T09:02:02.815Z,55.70
2018-04-26T09:04:30.452Z,55.70
2018-04-26T09:06:58.757Z,55.70
2018-04-26T09:09:26.339Z,55.70
2018-04-26T09:11:53.881Z,55.60
2018-04-26T09:14:21.405Z,55.60
2018-04-26T09:16:48.974Z,55.50
2018-04-26T09:19:16.549Z,55.50
2018-04-26T09:21:44.090Z,55.50
2018-04-26T09:24:11.650Z,55.30
2018-04-26T09:26:39.222Z,55.20
2018-04-26T09:29:06.750Z,55.30
2018-04-26T09:31:35.085Z,55.10
2018-04-26T09:34:02.632Z,55.10
2018-04-26T09:36:30.205Z,55.10
2018-04-26T09:38:57.739Z,55.00
2018-04-26T09:41:25.276Z,55.10
2018-04-26T09:43:53.619Z,55.00
2018-04-26T09:46:21.155Z,55.00
2018-04-26T09:48:48.727Z,55.00
2018-04-26T09:51:16.267Z,55.00
2018-04-26T09:53:43.835Z,55.00
2018-04-26T09:56:11.380Z,54.70
2018-04-26T09:58:39.177Z,55.70
2018-04-26T10:01:09.694Z,55.50
2018-04-26T10:03:38.005Z,55.00
2018-04-26T10:06:20.427Z,54.80
2018-04-26T10:08:48.765Z,54.50
2018-04-26T10:11:16.307Z,54.40
2018-04-26T10:13:43.885Z,54.50
2018-04-26T10:16:11.455Z,54.60
2018-04-26T10:18:39.795Z,54.60
2018-04-26T10:21:07.415Z,54.60
2018-04-26T10:23:36.439Z,55.20
2018-04-26T10:26:04.007Z,55.70
2018-04-26T10:28:31.546Z,55.70
2018-04-26T10:30:59.893Z,55.10
2018-04-26T10:33:27.468Z,55.10
2018-04-26T10:35:55.803Z,54.70
2018-04-26T10:38:23.335Z,54.70
2018-04-26T10:40:50.916Z,54.60
2018-04-26T10:43:18.446Z,54.70
2018-04-26T10:45:45.979Z,54.60
2018-04-26T10:48:13.550Z,54.70
2018-04-26T10:50:41.886Z,54.80
2018-04-26T10:53:09.423Z,54.70
2018-04-26T10:55:36.999Z,54.80
2018-04-26T10:58:04.526Z,54.70
2018-04-26T11:00:32.094Z,54.70
2018-04-26T11:02:59.671Z,54.80
2018-04-26T11:05:27.250Z,55.10
2018-04-26T11:07:54.823Z,55.00
2018-04-26T11:10:23.863Z,55.10
2018-04-26T11:12:51.439Z,55.10
2018-04-26T11:15:19.016Z,55.20
2018-04-26T11:17:46.553Z,55.20
2018-04-26T11:20:14.138Z,55.20
2018-04-26T11:22:41.683Z,55.10
2018-04-26T11:25:09.220Z,55.20
2018-04-26T11:27:36.803Z,55.20
2018-04-26T11:30:04.343Z,55.20
2018-04-26T11:32:31.916Z,55.30
2018-04-26T11:34:59.446Z,55.20
2018-04-26T11:37:27.786Z,55.20
2018-04-26T11:39:55.364Z,55.10
2018-04-26T11:42:24.411Z,55.00
2018-04-26T11:44:53.086Z,55.00
2018-04-26T11:47:20.663Z,55.60
2018-04-26T11:49:48.239Z,55.00
2018-04-26T11:52:15.780Z,54.90
2018-04-26T11:54:43.337Z,54.80
2018-04-26T11:57:10.905Z,54.70
2018-04-26T11:59:38.471Z,54.70
2018-04-26T12:02:06.041Z,54.70
2018-04-26T12:04:34.834Z,54.70
2018-04-26T12:07:02.414Z,54.70
2018-04-26T12:09:29.952Z,54.60
2018-04-26T12:11:57.521Z,54.60
2018-04-26T12:14:25.058Z,54.50
2018-04-26T12:16:52.629Z,54.40
2018-04-26T12:19:20.191Z,54.30
2018-04-26T12:21:49.314Z,54.40
2018-04-26T12:24:17.615Z,54.40
2018-04-26T12:26:45.919Z,54.40
2018-04-26T12:29:13.549Z,54.40
2018-04-26T12:31:41.040Z,54.40
2018-04-26T12:34:08.599Z,54.40
2018-04-26T12:36:36.138Z,54.40
2018-04-26T12:39:04.474Z,54.50
2018-04-26T12:41:32.010Z,54.40
2018-04-26T12:43:59.584Z,54.60
2018-04-26T12:46:27.145Z,54.50
2018-04-26T12:48:54.720Z,54.40
2018-04-26T12:51:23.029Z,54.20
2018-04-26T12:53:51.362Z,54.20
2018-04-26T12:56:18.930Z,54.10
2018-04-26T12:58:46.462Z,53.90
2018-04-26T13:01:14.035Z,53.90
2018-04-26T13:03:41.572Z,53.80
2018-04-26T13:06:09.148Z,53.80
2018-04-26T13:08:36.690Z,53.50
2018-04-26T13:11:04.268Z,53.40
2018-04-26T13:13:31.805Z,53.20
2018-04-26T13:15:59.410Z,53.10
2018-04-26T13:18:26.950Z,53.00
2018-04-26T13:20:54.477Z,52.70
2018-04-26T13:23:22.074Z,52.80
2018-04-26T13:25:49.610Z,52.50
2018-04-26T13:28:17.188Z,52.60
2018-04-26T13:30:44.755Z,52.50
2018-04-26T13:33:12.288Z,52.30
2018-04-26T13:35:39.867Z,52.20
2018-04-26T13:38:07.402Z,52.20
2018-04-26T13:40:34.959Z,52.10
2018-04-26T13:43:02.555Z,52.60
2018-04-26T13:45:30.096Z,52.10
2018-04-26T13:47:57.638Z,51.90
2018-04-26T13:50:25.217Z,52.30
2018-04-26T13:52:52.757Z,52.00
2018-04-26T13:55:20.337Z,52.20
2018-04-26T13:57:47.871Z,52.20
2018-04-26T14:00:16.208Z,52.40
2018-04-26T14:02:43.745Z,52.40
2018-04-26T14:05:11.319Z,52.00
2018-04-26T14:07:38.852Z,52.20
2018-04-26T14:10:06.417Z,51.90
2018-04-26T14:12:33.996Z,51.90
2018-04-26T14:15:01.529Z,52.00
2018-04-26T14:17:29.181Z,52.10
2018-04-26T14:19:56.686Z,51.70
2018-04-26T14:22:24.255Z,51.90
2018-04-26T14:24:51.782Z,52.00
2018-04-26T14:27:19.359Z,52.00
2018-04-26T14:29:46.900Z,51.90
2018-04-26T14:32:14.498Z,51.70
2018-04-26T14:34:42.035Z,51.70
2018-04-26T14:37:09.722Z,51.90
2018-04-26T14:39:37.975Z,52.50
2018-04-26T14:42:05.518Z,51.90
2018-04-26T14:44:33.088Z,51.80
2018-04-26T14:47:00.620Z,51.90
2018-04-26T14:49:28.200Z,51.90
2018-04-26T14:51:55.738Z,51.70
2018-04-26T14:54:23.326Z,51.80
2018-04-26T14:56:50.893Z,51.80
2018-04-26T14:59:18.459Z,51.80
2018-04-26T15:01:46.000Z,50.90
2018-04-26T15:04:13.584Z,51.50
2018-04-26T15:06:41.155Z,50.90
2018-04-26T15:09:10.231Z,51.10
2018-04-26T15:11:37.762Z,51.10
2018-04-26T15:14:05.334Z,51.30
2018-04-26T15:16:32.870Z,51.20
2018-04-26T15:19:01.212Z,51.00
2018-04-26T15:21:29.524Z,51.20
2018-04-26T15:23:57.858Z,50.10
2018-04-26T15:26:25.429Z,50.00
2018-04-26T15:28:53.734Z,50.30
2018-04-26T15:31:22.074Z,50.90
2018-04-26T15:33:49.608Z,50.70
2018-04-26T15:36:17.187Z,50.90
2018-04-26T15:38:44.736Z,51.00
2018-04-26T15:41:12.315Z,50.60
2018-04-26T15:43:39.879Z,50.20
2018-04-26T15:46:07.416Z,50.40
2018-04-26T15:48:34.996Z,51.00
2018-04-26T15:51:02.553Z,50.60
2018-04-26T15:53:42.174Z,50.70
2018-04-26T15:56:32.118Z,50.70
2018-04-26T15:59:12.432Z,51.50
2018-04-26T16:02:15.115Z,50.80
2018-04-26T16:04:54.544Z,50.80
2018-04-26T16:07:49.523Z,50.80
2018-04-26T16:10:29.010Z,50.80
2018-04-26T16:13:15.162Z,50.80
2018-04-26T16:16:00.392Z,50.70
2018-04-26T16:18:42.938Z,50.80
2018-04-26T16:21:37.152Z,50.80
2018-04-26T16:24:22.329Z,50.80
2018-04-26T16:27:07.554Z,50.80
2018-04-26T16:29:47.654Z,51.20
2018-04-26T16:32:32.892Z,51.20
2018-04-26T16:35:19.119Z,50.00
2018-04-26T16:38:04.356Z,49.90
2018-04-26T16:40:32.690Z,46.70
2018-04-26T16:43:00.272Z,46.70
2018-04-26T16:45:27.894Z,45.90
2018-04-26T16:47:55.483Z,45.10
2018-04-26T16:50:23.026Z,44.60
2018-04-26T16:52:50.607Z,44.10
2018-04-26T16:55:18.150Z,43.90
2018-04-26T16:57:45.681Z,43.50
2018-04-26T17:00:13.256Z,43.20
2018-04-26T17:02:40.789Z,43.00
2018-04-26T17:05:08.354Z,42.60
2018-04-26T17:07:35.887Z,42.30
2018-04-26T17:10:04.225Z,42.00
2018-04-26T17:12:31.786Z,42.00
2018-04-26T17:14:59.322Z,42.00
2018-04-26T17:17:26.893Z,42.10
2018-04-26T17:19:54.458Z,42.00
2018-04-26T17:22:22.043Z,41.90
2018-04-26T17:24:49.613Z,41.70
2018-04-26T17:27:17.192Z,41.70
2018-04-26T17:29:45.490Z,41.60
2018-04-26T17:32:13.025Z,41.60
2018-04-26T17:34:41.363Z,41.90
2018-04-26T17:37:10.427Z,41.40
2018-04-26T17:39:37.998Z,42.10
2018-04-26T17:42:05.587Z,41.50
2018-04-26T17:44:33.113Z,41.50
2018-04-26T17:47:00.650Z,41.70
2018-04-26T17:49:28.987Z,41.80
2018-04-26T17:51:56.522Z,41.70
2018-04-26T17:54:24.101Z,41.90
2018-04-26T17:56:51.670Z,41.90
2018-04-26T17:59:19.205Z,42.20
2018-04-26T18:01:46.790Z,42.30
2018-04-26T18:04:14.354Z,42.30
2018-04-26T18:06:41.890Z,42.40
2018-04-26T18:09:09.422Z,43.00
2018-04-26T18:11:37.002Z,42.50
2018-04-26T18:14:04.666Z,42.60
2018-04-26T18:16:32.238Z,42.60
2018-04-26T18:18:59.814Z,42.60
2018-04-26T18:21:27.343Z,42.80
2018-04-26T18:23:55.674Z,43.20
2018-04-26T18:26:23.964Z,43.40
2018-04-26T18:28:52.319Z,43.60
2018-04-26T18:31:20.042Z,43.50
2018-04-26T18:33:47.584Z,44.30
2018-04-26T18:36:15.126Z,43.80
2018-04-26T18:38:43.466Z,44.00
2018-04-26T18:41:10.994Z,43.90
2018-04-26T18:43:38.565Z,44.00
2018-04-26T18:46:06.135Z,44.00
2018-04-26T18:48:33.694Z,44.00
2018-04-26T18:51:01.300Z,44.00
2018-04-26T18:53:28.812Z,44.00
2018-04-26T18:55:56.348Z,44.00
2018-04-26T18:58:23.927Z,44.10
2018-04-26T19:00:51.459Z,44.20
2018-04-26T19:03:19.034Z,44.30
2018-04-26T19:05:46.588Z,44.30
2018-04-26T19:08:14.238Z,44.30
2018-04-26T19:10:41.846Z,44.40
2018-04-26T19:13:09.445Z,44.50
2018-04-26T19:15:37.822Z,44.70
2018-04-26T19:18:05.391Z,44.60
2018-04-26T19:20:33.809Z,44.80
2018-04-26T19:23:01.342Z,44.80
2018-04-26T19:25:28.919Z,44.80
2018-04-26T19:27:56.461Z,44.90
2018-04-26T19:30:24.101Z,44.90
2018-04-26T19:32:52.651Z,45.20
2018-04-26T19:35:20.473Z,45.10
2018-04-26T19:37:48.262Z,45.20
2018-04-26T19:40:15.841Z,45.30
2018-04-26T19:42:43.414Z,45.40
2018-04-26T19:45:11.012Z,45.50
2018-04-26T19:47:39.310Z,45.70
2018-04-26T19:50:06.879Z,45.60
2018-04-26T19:52:34.554Z,45.80
2018-04-26T19:55:02.303Z,45.90
2018-04-26T19:57:29.868Z,46.00
2018-04-26T19:59:57.463Z,46.00
2018-04-26T20:02:24.989Z,46.20
2018-04-26T20:04:52.766Z,46.30
2018-04-26T20:07:20.425Z,46.40
2018-04-26T20:09:47.978Z,46.50
2018-04-26T20:12:15.551Z,46.60
2018-04-26T20:14:43.092Z,46.80
2018-04-26T20:17:10.852Z,47.00
2018-04-26T20:19:38.479Z,47.10
2018-04-26T20:22:06.804Z,47.50
2018-04-26T20:24:35.212Z,47.60
2018-04-26T20:27:02.950Z,47.60
2018-04-26T20:29:30.518Z,47.80
2018-04-26T20:31:58.093Z,47.80
2018-04-26T20:34:25.636Z,47.90
2018-04-26T20:36:53.225Z,48.20
2018-04-26T20:39:20.827Z,48.60
2018-04-26T20:41:55.785Z,48.90
2018-04-26T20:44:34.911Z,49.10
2018-04-26T20:47:02.479Z,49.50
2018-04-26T20:49:30.059Z,49.80
2018-04-26T20:51:57.701Z,50.10
2018-04-26T20:54:25.327Z,50.20
2018-04-26T20:56:53.633Z,50.60
2018-04-26T20:59:21.198Z,50.50
2018-04-26T21:01:48.738Z,50.70
2018-04-26T21:04:16.316Z,50.90
2018-04-26T21:06:43.882Z,51.10
2018-04-26T21:09:11.450Z,51.30
2018-04-26T21:11:38.987Z,51.40
2018-04-26T21:14:06.613Z,51.60
2018-04-26T21:16:34.115Z,51.60
2018-04-26T21:19:01.651Z,51.70
2018-04-26T21:21:29.235Z,51.90
2018-04-26T21:23:56.776Z,52.00
2018-04-26T21:26:24.308Z,52.00
2018-04-26T21:28:51.890Z,52.10
2018-04-26T21:31:19.462Z,52.20
2018-04-26T21:33:47.011Z,52.40
2018-04-26T21:36:14.592Z,52.50
2018-04-26T21:38:42.122Z,52.40
2018-04-26T21:41:10.417Z,52.60
2018-04-26T21:43:38.096Z,52.50
2018-04-26T21:46:05.645Z,52.60
2018-04-26T21:48:33.188Z,52.60
2018-04-26T21:51:06.537Z,52.70
2018-04-26T21:53:39.777Z,52.70
2018-04-26T21:56:13.884Z,52.70
2018-04-26T21:58:47.976Z,52.80
2018-04-26T22:01:21.175Z,52.70
2018-04-26T22:04:04.395Z,53.00
2018-04-26T22:06:31.930Z,52.90
2018-04-26T22:08:59.497Z,53.00
2018-04-26T22:11:27.067Z,53.10
2018-04-26T22:13:55.361Z,53.30
2018-04-26T22:16:22.931Z,53.20
2018-04-26T22:18:51.235Z,53.30
2018-04-26T22:21:18.813Z,53.30
2018-04-26T22:23:46.347Z,53.40
2018-04-26T22:26:14.029Z,53.50
2018-04-26T22:28:41.604Z,53.50
2018-04-26T22:31:09.178Z,53.60
2018-04-26T22:33:36.711Z,53.70
2018-04-26T22:36:04.253Z,53.70
2018-04-26T22:38:31.846Z,53.70
2018-04-26T22:40:59.416Z,53.70
2018-04-26T22:43:26.982Z,53.70
2018-04-26T22:45:54.515Z,53.80
2018-04-26T22:48:22.083Z,53.80
2018-04-26T22:50:49.662Z,53.80
2018-04-26T22:53:17.194Z,53.90
2018-04-26T22:55:44.726Z,53.90
2018-04-26T22:58:12.290Z,54.00
2018-04-26T23:00:39.822Z,54.00
2018-04-26T23:03:08.150Z,54.20
2018-04-26T23:05:35.692Z,54.00
2018-04-26T23:08:03.290Z,54.00
2018-04-26T23:10:30.828Z,54.00
2018-04-26T23:12:58.370Z,54.10
2018-04-26T23:15:25.935Z,54.10
2018-04-26T23:17:53.470Z,54.10
2018-04-26T23:20:21.823Z,54.10
2018-04-26T23:22:49.352Z,54.10
2018-04-26T23:25:16.920Z,54.10
2018-04-26T23:27:44.456Z,54.10
2018-04-26T23:30:12.027Z,54.10
2018-04-26T23:32:39.567Z,54.10
2018-04-26T23:35:07.141Z,54.20
2018-04-26T23:37:34.684Z,54.20
2018-04-26T23:40:02.262Z,54.20
2018-04-26T23:42:29.793Z,54.10
2018-04-26T23:44:58.099Z,54.10
2018-04-26T23:47:26.434Z,54.20
2018-04-26T23:49:54.788Z,54.10
2018-04-26T23:52:22.327Z,54.10
2018-04-26T23:54:49.862Z,54.20
2018-04-26T23:57:17.440Z,54.20
2018-04-26T23:59:44.978Z,54.30
